Etusivu
METAR-TAF:

METAR-TAF

Lentoasemat :

Bigfork Municipal Airport

Bigfork, Minnesota, Yhdysvallat

Leveyspiiri: 47-46-58N, Pituuspiiri: 093-39-01W, korkeus merenpinnasta: 411 m

Tämänhetkinen sää

Tämä raportti tehtiin 24 minuuttia sitten, kello 03.33 UTC
tyyntä
Lämpötila 3°C
Kosteus 75%
Ilmanpaine 1021 hPa
Näkyvyys: 16.1 km
Hajanaisia pilviä 8000 ft:n korkeudessa

METAR: KFOZ 230333Z AUTO 00000KT 10SM SCT080 03/M01 A3014 RMK AO2

Aika: 22:57 (03:57 UTC)


TAF: puuttuu

Säähavainnot ja -ennusteet yli 4000 lentoasemalta (METAR- ja TAF-raportit).

Käytössä olevat sääasemat on merkitty karttaan keltaisilla ja punaisilla pisteillä.

Aseta hiiri pisteen päälle nähdäksesi sääaseman nimen.

Klikkaa sitten nähdäksesi säähavainnot ja -ennusteet.

Kartan vaihtaminen: klikkaa mustalla rastilla varustettuja vihreitä pisteitä, niin voit zoomata sisään; viivalla varustettua vihreää pistettä, niin voit zoomata ulos tai vihreitä nuolia, niin pääset viereisille kartoille.


METAR-TAF: